sensor_id;sensor_type;location;lat;lon;timestamp;pressure;altitude;pressure_sealevel;temperature;humidity
9690;BME280;4884;42.614;23.340;2024-02-23T00:01:24;92455.56;;;4.59;77.34
9690;BME280;4884;42.614;23.340;2024-02-23T00:03:50;92414.50;;;4.31;76.42
9690;BME280;4884;42.614;23.340;2024-02-23T00:06:15;92443.59;;;4.40;78.58
9690;BME280;4884;42.614;23.340;2024-02-23T00:08:41;92282.06;;;3.81;74.89
9690;BME280;4884;42.614;23.340;2024-02-23T00:11:07;92338.09;;;4.01;75.90
9690;BME280;4884;42.614;23.340;2024-02-23T00:13:33;92429.06;;;4.36;78.00
9690;BME280;4884;42.614;23.340;2024-02-23T00:15:58;92327.88;;;3.74;78.75
9690;BME280;4884;42.614;23.340;2024-02-23T00:18:23;92305.94;;;3.68;77.89
9690;BME280;4884;42.614;23.340;2024-02-23T00:20:49;92300.44;;;3.61;77.02
9690;BME280;4884;42.614;23.340;2024-02-23T00:23:14;92348.09;;;3.89;75.36
9690;BME280;4884;42.614;23.340;2024-02-23T00:25:40;92417.25;;;4.71;72.39
9690;BME280;4884;42.614;23.340;2024-02-23T00:28:06;92307.44;;;4.18;70.48
9690;BME280;4884;42.614;23.340;2024-02-23T00:30:31;92439.47;;;4.89;72.65
9690;BME280;4884;42.614;23.340;2024-02-23T00:32:57;92420.63;;;4.80;72.36
9690;BME280;4884;42.614;23.340;2024-02-23T00:35:22;92446.78;;;4.95;70.89
9690;BME280;4884;42.614;23.340;2024-02-23T00:37:47;92357.66;;;4.46;72.08
9690;BME280;4884;42.614;23.340;2024-02-23T00:40:13;92410.81;;;4.82;72.80
9690;BME280;4884;42.614;23.340;2024-02-23T00:42:38;92426.19;;;4.95;71.01
9690;BME280;4884;42.614;23.340;2024-02-23T00:45:04;92429.38;;;4.79;72.08
9690;BME280;4884;42.614;23.340;2024-02-23T00:47:30;92430.91;;;4.80;73.45
9690;BME280;4884;42.614;23.340;2024-02-23T00:49:55;92389.47;;;4.59;72.97
9690;BME280;4884;42.614;23.340;2024-02-23T00:52:20;92408.13;;;4.65;74.43
9690;BME280;4884;42.614;23.340;2024-02-23T00:54:46;92423.41;;;4.70;75.69
9690;BME280;4884;42.614;23.340;2024-02-23T00:57:11;92289.06;;;3.89;73.65
9690;BME280;4884;42.614;23.340;2024-02-23T00:59:36;92313.81;;;4.21;71.56
9690;BME280;4884;42.614;23.340;2024-02-23T01:02:02;92233.75;;;3.83;69.85
9690;BME280;4884;42.614;23.340;2024-02-23T01:04:27;92275.69;;;4.14;70.13
9690;BME280;4884;42.614;23.340;2024-02-23T01:06:52;92394.94;;;5.02;69.85
9690;BME280;4884;42.614;23.340;2024-02-23T01:09:18;92255.53;;;4.08;71.54
9690;BME280;4884;42.614;23.340;2024-02-23T01:11:46;92270.66;;;4.09;72.10
9690;BME280;4884;42.614;23.340;2024-02-23T01:14:12;92381.63;;;4.78;72.42
9690;BME280;4884;42.614;23.340;2024-02-23T01:16:37;92386.56;;;4.74;70.76
9690;BME280;4884;42.614;23.340;2024-02-23T01:19:03;92291.22;;;4.31;69.60
9690;BME280;4884;42.614;23.340;2024-02-23T01:21:28;92272.19;;;4.10;70.83
9690;BME280;4884;42.614;23.340;2024-02-23T01:23:54;92381.03;;;4.59;72.64
9690;BME280;4884;42.614;23.340;2024-02-23T01:26:19;92342.06;;;4.65;71.09
9690;BME280;4884;42.614;23.340;2024-02-23T01:28:44;92401.38;;;4.91;74.12
9690;BME280;4884;42.614;23.340;2024-02-23T01:31:11;92368.47;;;4.57;74.49
9690;BME280;4884;42.614;23.340;2024-02-23T01:33:37;92269.88;;;3.87;74.71
9690;BME280;4884;42.614;23.340;2024-02-23T01:36:07;92272.81;;;3.58;76.46
9690;BME280;4884;42.614;23.340;2024-02-23T01:38:33;92324.22;;;4.02;76.47
9690;BME280;4884;42.614;23.340;2024-02-23T01:41:00;92350.19;;;4.36;74.70
9690;BME280;4884;42.614;23.340;2024-02-23T01:43:26;92394.97;;;4.44;78.62
9690;BME280;4884;42.614;23.340;2024-02-23T01:45:52;92237.94;;;3.57;75.27
9690;BME280;4884;42.614;23.340;2024-02-23T01:48:18;92385.63;;;4.26;78.44
9690;BME280;4884;42.614;23.340;2024-02-23T01:50:44;92396.44;;;4.23;81.64
9690;BME280;4884;42.614;23.340;2024-02-23T01:53:10;92259.50;;;3.56;77.93
9690;BME280;4884;42.614;23.340;2024-02-23T01:55:40;92224.88;;;3.31;78.52
9690;BME280;4884;42.614;23.340;2024-02-23T01:58:06;92237.06;;;3.61;75.88
9690;BME280;4884;42.614;23.340;2024-02-23T02:00:32;92191.53;;;3.31;77.35
9690;BME280;4884;42.614;23.340;2024-02-23T02:02:57;92354.78;;;4.26;78.22
9690;BME280;4884;42.614;23.340;2024-02-23T02:05:23;92227.28;;;3.50;78.70
9690;BME280;4884;42.614;23.340;2024-02-23T02:07:53;92273.56;;;3.94;75.92
9690;BME280;4884;42.614;23.340;2024-02-23T02:10:19;92221.03;;;3.78;75.13
9690;BME280;4884;42.614;23.340;2024-02-23T02:12:45;92330.91;;;4.47;74.48
9690;BME280;4884;42.614;23.340;2024-02-23T02:15:10;92227.75;;;3.52;78.15
9690;BME280;4884;42.614;23.340;2024-02-23T02:17:36;92224.72;;;3.50;78.00
9690;BME280;4884;42.614;23.340;2024-02-23T02:20:02;92359.28;;;4.42;75.87
9690;BME280;4884;42.614;23.340;2024-02-23T02:22:33;92336.94;;;4.43;76.17
9690;BME280;4884;42.614;23.340;2024-02-23T02:24:59;92216.06;;;3.59;76.26
9690;BME280;4884;42.614;23.340;2024-02-23T02:27:24;92353.38;;;4.42;75.88
9690;BME280;4884;42.614;23.340;2024-02-23T02:29:50;92376.75;;;4.54;74.84
9690;BME280;4884;42.614;23.340;2024-02-23T02:32:16;92235.63;;;3.69;72.99
9690;BME280;4884;42.614;23.340;2024-02-23T02:34:42;92255.06;;;3.84;73.24
9690;BME280;4884;42.614;23.340;2024-02-23T02:37:07;92366.34;;;4.37;74.79
9690;BME280;4884;42.614;23.340;2024-02-23T02:39:33;92384.63;;;4.35;76.79
9690;BME280;4884;42.614;23.340;2024-02-23T02:41:58;92246.56;;;3.61;74.38
9690;BME280;4884;42.614;23.340;2024-02-23T02:44:24;92215.47;;;3.40;74.56
9690;BME280;4884;42.614;23.340;2024-02-23T02:46:49;92350.66;;;4.38;75.24
9690;BME280;4884;42.614;23.340;2024-02-23T02:49:14;92241.06;;;3.54;75.93
9690;BME280;4884;42.614;23.340;2024-02-23T02:51:40;92363.38;;;4.21;77.02
9690;BME280;4884;42.614;23.340;2024-02-23T02:54:05;92217.50;;;3.52;73.53
9690;BME280;4884;42.614;23.340;2024-02-23T02:56:31;92337.56;;;4.48;73.55
9690;BME280;4884;42.614;23.340;2024-02-23T02:58:56;92360.06;;;4.43;74.75
9690;BME280;4884;42.614;23.340;2024-02-23T03:01:21;92234.53;;;3.34;76.71
9690;BME280;4884;42.614;23.340;2024-02-23T03:03:47;92353.66;;;4.18;75.90
9690;BME280;4884;42.614;23.340;2024-02-23T03:06:12;92364.09;;;4.22;77.07
9690;BME280;4884;42.614;23.340;2024-02-23T03:08:37;92253.19;;;3.13;80.02
9690;BME280;4884;42.614;23.340;2024-02-23T03:11:03;92403.72;;;3.94;80.69
9690;BME280;4884;42.614;23.340;2024-02-23T03:13:28;92395.13;;;4.12;78.19
9690;BME280;4884;42.614;23.340;2024-02-23T03:15:54;92345.72;;;4.06;77.39
9690;BME280;4884;42.614;23.340;2024-02-23T03:18:19;92395.50;;;4.19;77.60
9690;BME280;4884;42.614;23.340;2024-02-23T03:20:45;92386.19;;;4.09;78.35
9690;BME280;4884;42.614;23.340;2024-02-23T03:23:11;92348.97;;;3.85;78.83
9690;BME280;4884;42.614;23.340;2024-02-23T03:25:36;92369.88;;;3.78;79.72
9690;BME280;4884;42.614;23.340;2024-02-23T03:28:02;92234.28;;;2.95;80.64
9690;BME280;4884;42.614;23.340;2024-02-23T03:30:27;92216.63;;;2.80;80.99
9690;BME280;4884;42.614;23.340;2024-02-23T03:32:52;92380.91;;;3.78;80.88
9690;BME280;4884;42.614;23.340;2024-02-23T03:35:18;92378.56;;;3.82;81.65
9690;BME280;4884;42.614;23.340;2024-02-23T03:37:43;92399.75;;;3.74;82.55
9690;BME280;4884;42.614;23.340;2024-02-23T03:40:09;92241.72;;;2.96;81.87
9690;BME280;4884;42.614;23.340;2024-02-23T03:42:35;92289.16;;;3.21;81.81
9690;BME280;4884;42.614;23.340;2024-02-23T03:45:01;92255.75;;;2.85;83.25
9690;BME280;4884;42.614;23.340;2024-02-23T03:47:26;92257.09;;;2.96;83.30
9690;BME280;4884;42.614;23.340;2024-02-23T03:49:51;92378.81;;;3.67;84.25
9690;BME280;4884;42.614;23.340;2024-02-23T03:52:17;92359.66;;;3.51;83.91
9690;BME280;4884;42.614;23.340;2024-02-23T03:54:42;92354.03;;;3.22;85.47
9690;BME280;4884;42.614;23.340;2024-02-23T03:57:08;92241.13;;;2.72;84.24
9690;BME280;4884;42.614;23.340;2024-02-23T03:59:36;92257.94;;;3.06;82.83
9690;BME280;4884;42.614;23.340;2024-02-23T04:02:01;92331.44;;;3.24;85.76
9690;BME280;4884;42.614;23.340;2024-02-23T04:04:26;92258.00;;;2.73;85.43
9690;BME280;4884;42.614;23.340;2024-02-23T04:06:52;92278.72;;;2.77;87.46
9690;BME280;4884;42.614;23.340;2024-02-23T04:09:17;92377.88;;;3.36;86.77
9690;BME280;4884;42.614;23.340;2024-02-23T04:11:42;92361.56;;;3.32;87.52
9690;BME280;4884;42.614;23.340;2024-02-23T04:14:08;92362.31;;;3.46;86.74
9690;BME280;4884;42.614;23.340;2024-02-23T04:16:33;92321.81;;;3.02;87.18
9690;BME280;4884;42.614;23.340;2024-02-23T04:18:59;92353.84;;;3.45;85.39
9690;BME280;4884;42.614;23.340;2024-02-23T04:21:25;92216.75;;;2.61;84.34
9690;BME280;4884;42.614;23.340;2024-02-23T04:23:50;92216.25;;;2.46;85.16
9690;BME280;4884;42.614;23.340;2024-02-23T04:26:16;92359.84;;;3.27;87.84
9690;BME280;4884;42.614;23.340;2024-02-23T04:28:41;92369.44;;;3.49;86.19
9690;BME280;4884;42.614;23.340;2024-02-23T04:31:10;92366.88;;;3.49;84.80
9690;BME280;4884;42.614;23.340;2024-02-23T04:33:38;92376.34;;;3.21;86.92
9690;BME280;4884;42.614;23.340;2024-02-23T04:36:04;92367.44;;;3.19;87.61
9690;BME280;4884;42.614;23.340;2024-02-23T04:38:30;92365.53;;;3.24;86.14
9690;BME280;4884;42.614;23.340;2024-02-23T04:40:56;92287.16;;;2.77;85.80
9690;BME280;4884;42.614;23.340;2024-02-23T04:43:22;92364.69;;;3.29;85.90
9690;BME280;4884;42.614;23.340;2024-02-23T04:45:48;92310.22;;;2.77;86.35
9690;BME280;4884;42.614;23.340;2024-02-23T04:48:13;92242.69;;;2.41;86.68
9690;BME280;4884;42.614;23.340;2024-02-23T04:50:39;92238.63;;;2.40;86.58
9690;BME280;4884;42.614;23.340;2024-02-23T04:53:04;92259.44;;;2.20;89.38
9690;BME280;4884;42.614;23.340;2024-02-23T04:55:29;92273.75;;;2.53;87.09
9690;BME280;4884;42.614;23.340;2024-02-23T04:57:55;92351.56;;;3.44;84.34
9690;BME280;4884;42.614;23.340;2024-02-23T05:00:21;92249.78;;;2.31;87.76
9690;BME280;4884;42.614;23.340;2024-02-23T05:02:46;92264.59;;;2.47;87.95
9690;BME280;4884;42.614;23.340;2024-02-23T05:05:11;92358.09;;;3.09;86.58
9690;BME280;4884;42.614;23.340;2024-02-23T05:07:37;92239.41;;;2.54;85.11
9690;BME280;4884;42.614;23.340;2024-02-23T05:10:03;92220.19;;;2.38;85.98
9690;BME280;4884;42.614;23.340;2024-02-23T05:12:29;92385.44;;;3.00;88.75
9690;BME280;4884;42.614;23.340;2024-02-23T05:14:54;92268.00;;;2.29;88.85
9690;BME280;4884;42.614;23.340;2024-02-23T05:17:19;92376.63;;;3.20;86.61
9690;BME280;4884;42.614;23.340;2024-02-23T05:19:45;92419.00;;;3.31;87.03
9690;BME280;4884;42.614;23.340;2024-02-23T05:22:12;92251.94;;;2.23;87.19
9690;BME280;4884;42.614;23.340;2024-02-23T05:24:37;92410.91;;;3.24;86.68
9690;BME280;4884;42.614;23.340;2024-02-23T05:27:03;92403.22;;;3.24;85.99
9690;BME280;4884;42.614;23.340;2024-02-23T05:29:28;92403.59;;;3.17;86.35
9690;BME280;4884;42.614;23.340;2024-02-23T05:31:54;92417.28;;;3.26;86.54
9690;BME280;4884;42.614;23.340;2024-02-23T05:34:19;92340.91;;;2.96;86.64
9690;BME280;4884;42.614;23.340;2024-02-23T05:36:45;92274.13;;;2.60;86.04
9690;BME280;4884;42.614;23.340;2024-02-23T05:39:12;92405.25;;;3.81;83.39
9690;BME280;4884;42.614;23.340;2024-02-23T05:41:38;92361.72;;;3.76;81.40
9690;BME280;4884;42.614;23.340;2024-02-23T05:44:04;92433.09;;;4.01;82.05
9690;BME280;4884;42.614;23.340;2024-02-23T05:46:34;92379.75;;;3.85;83.17
9690;BME280;4884;42.614;23.340;2024-02-23T05:49:00;92393.22;;;4.17;80.50
9690;BME280;4884;42.614;23.340;2024-02-23T05:51:27;92270.06;;;3.41;79.97
9690;BME280;4884;42.614;23.340;2024-02-23T05:53:54;92312.41;;;3.65;79.89
9690;BME280;4884;42.614;23.340;2024-02-23T05:56:19;92420.84;;;4.47;78.98
9690;BME280;4884;42.614;23.340;2024-02-23T05:58:44;92290.69;;;3.36;81.37
9690;BME280;4884;42.614;23.340;2024-02-23T06:01:10;92315.34;;;3.59;83.11
9690;BME280;4884;42.614;23.340;2024-02-23T06:03:35;92431.94;;;4.56;80.61
9690;BME280;4884;42.614;23.340;2024-02-23T06:06:00;92309.09;;;4.01;78.90
9690;BME280;4884;42.614;23.340;2024-02-23T06:08:26;92444.25;;;5.04;76.65
9690;BME280;4884;42.614;23.340;2024-02-23T06:10:51;92315.56;;;4.56;73.88
9690;BME280;4884;42.614;23.340;2024-02-23T06:13:16;92452.88;;;5.52;71.85
9690;BME280;4884;42.614;23.340;2024-02-23T06:15:42;92320.94;;;4.99;71.48
9690;BME280;4884;42.614;23.340;2024-02-23T06:18:08;92307.59;;;5.27;71.65
9690;BME280;4884;42.614;23.340;2024-02-23T06:20:33;92413.44;;;5.74;70.99
9690;BME280;4884;42.614;23.340;2024-02-23T06:22:59;92424.66;;;5.78;72.51
9690;BME280;4884;42.614;23.340;2024-02-23T06:25:24;92357.03;;;5.64;70.46
9690;BME280;4884;42.614;23.340;2024-02-23T06:27:49;92462.75;;;6.37;70.99
9690;BME280;4884;42.614;23.340;2024-02-23T06:30:15;92382.47;;;5.87;70.06
9690;BME280;4884;42.614;23.340;2024-02-23T06:32:40;92309.91;;;5.46;70.74
9690;BME280;4884;42.614;23.340;2024-02-23T06:35:06;92264.75;;;5.23;70.64
9690;BME280;4884;42.614;23.340;2024-02-23T06:37:32;92371.09;;;5.97;68.50
9690;BME280;4884;42.614;23.340;2024-02-23T06:39:58;92350.38;;;6.11;66.82
9690;BME280;4884;42.614;23.340;2024-02-23T06:42:25;92456.72;;;7.02;68.55
9690;BME280;4884;42.614;23.340;2024-02-23T06:44:50;92444.56;;;6.51;68.94
9690;BME280;4884;42.614;23.340;2024-02-23T06:47:16;92341.09;;;5.92;67.92
9690;BME280;4884;42.614;23.340;2024-02-23T06:49:42;92467.47;;;7.04;67.26
9690;BME280;4884;42.614;23.340;2024-02-23T06:52:08;92433.44;;;7.44;64.39
9690;BME280;4884;42.614;23.340;2024-02-23T06:54:34;92356.25;;;7.05;65.18
9690;BME280;4884;42.614;23.340;2024-02-23T06:56:59;92433.66;;;7.05;63.58
9690;BME280;4884;42.614;23.340;2024-02-23T06:59:25;92344.47;;;6.78;63.52
9690;BME280;4884;42.614;23.340;2024-02-23T07:01:51;92460.94;;;8.24;60.37
9690;BME280;4884;42.614;23.340;2024-02-23T07:04:16;92321.44;;;7.20;60.80
9690;BME280;4884;42.614;23.340;2024-02-23T07:06:42;92449.53;;;8.34;58.97
9690;BME280;4884;42.614;23.340;2024-02-23T07:09:08;92441.66;;;8.22;59.89
9690;BME280;4884;42.614;23.340;2024-02-23T07:11:33;92431.00;;;8.32;59.27
9690;BME280;4884;42.614;23.340;2024-02-23T07:13:59;92468.41;;;8.84;59.01
9690;BME280;4884;42.614;23.340;2024-02-23T07:16:24;92446.56;;;9.27;56.56
9690;BME280;4884;42.614;23.340;2024-02-23T07:18:49;92476.06;;;9.79;55.48
9690;BME280;4884;42.614;23.340;2024-02-23T07:21:17;92355.16;;;9.71;53.06
9690;BME280;4884;42.614;23.340;2024-02-23T07:23:43;92392.53;;;10.06;52.02
9690;BME280;4884;42.614;23.340;2024-02-23T07:26:08;92473.94;;;11.69;47.29
9690;BME280;4884;42.614;23.340;2024-02-23T07:28:34;92349.53;;;9.81;49.51
9690;BME280;4884;42.614;23.340;2024-02-23T07:30:59;92444.50;;;10.58;49.22
9690;BME280;4884;42.614;23.340;2024-02-23T07:33:24;92369.19;;;10.30;48.15
9690;BME280;4884;42.614;23.340;2024-02-23T07:35:50;92337.41;;;11.01;46.40
9690;BME280;4884;42.614;23.340;2024-02-23T07:38:15;92339.09;;;12.68;43.61
9690;BME280;4884;42.614;23.340;2024-02-23T07:40:43;92456.81;;;14.34;40.98
9690;BME280;4884;42.614;23.340;2024-02-23T07:43:09;92442.94;;;13.66;40.44
9690;BME280;4884;42.614;23.340;2024-02-23T07:45:36;92376.16;;;12.27;43.40
9690;BME280;4884;42.614;23.340;2024-02-23T07:48:02;92464.78;;;12.69;46.03
9690;BME280;4884;42.614;23.340;2024-02-23T07:50:28;92338.34;;;11.67;45.69
9690;BME280;4884;42.614;23.340;2024-02-23T07:52:53;92453.13;;;13.13;44.01
9690;BME280;4884;42.614;23.340;2024-02-23T07:55:18;92346.09;;;12.84;43.69
9690;BME280;4884;42.614;23.340;2024-02-23T07:57:44;92453.50;;;12.46;46.64
9690;BME280;4884;42.614;23.340;2024-02-23T08:00:09;92457.56;;;11.96;48.65
9690;BME280;4884;42.614;23.340;2024-02-23T08:02:36;92462.91;;;11.05;50.72
9690;BME280;4884;42.614;23.340;2024-02-23T08:05:01;92444.69;;;11.17;50.26
9690;BME280;4884;42.614;23.340;2024-02-23T08:07:27;92448.78;;;10.78;52.14
9690;BME280;4884;42.614;23.340;2024-02-23T08:09:53;92421.63;;;11.43;50.38
9690;BME280;4884;42.614;23.340;2024-02-23T08:12:19;92360.75;;;10.09;52.49
9690;BME280;4884;42.614;23.340;2024-02-23T08:14:44;92321.22;;;11.35;49.73
9690;BME280;4884;42.614;23.340;2024-02-23T08:17:11;92353.06;;;12.26;46.52
9690;BME280;4884;42.614;23.340;2024-02-23T08:19:37;92343.63;;;11.86;46.21
9690;BME280;4884;42.614;23.340;2024-02-23T08:22:02;92434.91;;;12.63;47.73
9690;BME280;4884;42.614;23.340;2024-02-23T08:24:27;92429.03;;;14.45;42.21
9690;BME280;4884;42.614;23.340;2024-02-23T08:26:53;92377.16;;;14.44;39.40
9690;BME280;4884;42.614;23.340;2024-02-23T08:29:19;92443.00;;;15.12;40.23
9690;BME280;4884;42.614;23.340;2024-02-23T08:31:44;92463.59;;;15.47;39.27
9690;BME280;4884;42.614;23.340;2024-02-23T08:34:10;92389.63;;;13.40;42.87
9690;BME280;4884;42.614;23.340;2024-02-23T08:36:35;92440.66;;;12.53;47.42
9690;BME280;4884;42.614;23.340;2024-02-23T08:39:01;92325.88;;;11.73;48.19
9690;BME280;4884;42.614;23.340;2024-02-23T08:41:26;92361.50;;;10.34;51.29
9690;BME280;4884;42.614;23.340;2024-02-23T08:43:52;92442.78;;;10.26;56.41
9690;BME280;4884;42.614;23.340;2024-02-23T08:46:17;92458.75;;;10.76;54.84
9690;BME280;4884;42.614;23.340;2024-02-23T08:48:43;92446.41;;;10.73;53.60
9690;BME280;4884;42.614;23.340;2024-02-23T08:51:09;92335.06;;;9.92;54.22
9690;BME280;4884;42.614;23.340;2024-02-23T08:53:34;92349.84;;;10.16;53.57
9690;BME280;4884;42.614;23.340;2024-02-23T08:55:59;92349.13;;;10.15;53.78
9690;BME280;4884;42.614;23.340;2024-02-23T08:58:25;92354.94;;;10.24;53.02
9690;BME280;4884;42.614;23.340;2024-02-23T09:00:51;92465.50;;;12.50;49.19
9690;BME280;4884;42.614;23.340;2024-02-23T09:03:16;92342.56;;;12.57;45.75
9690;BME280;4884;42.614;23.340;2024-02-23T09:05:42;92435.16;;;13.27;46.45
9690;BME280;4884;42.614;23.340;2024-02-23T09:08:07;92345.91;;;13.76;42.99
9690;BME280;4884;42.614;23.340;2024-02-23T09:10:32;92317.53;;;14.23;40.70
9690;BME280;4884;42.614;23.340;2024-02-23T09:12:58;92431.72;;;15.05;39.83
9690;BME280;4884;42.614;23.340;2024-02-23T09:15:23;92381.31;;;15.74;38.75
9690;BME280;4884;42.614;23.340;2024-02-23T09:17:48;92363.66;;;17.41;34.43
9690;BME280;4884;42.614;23.340;2024-02-23T09:20:14;92355.88;;;17.69;33.47
9690;BME280;4884;42.614;23.340;2024-02-23T09:22:39;92395.59;;;19.09;31.26
9690;BME280;4884;42.614;23.340;2024-02-23T09:25:06;92399.28;;;19.36;31.35
9690;BME280;4884;42.614;23.340;2024-02-23T09:27:31;92425.16;;;19.59;30.73
9690;BME280;4884;42.614;23.340;2024-02-23T09:29:57;92442.00;;;19.68;30.26
9690;BME280;4884;42.614;23.340;2024-02-23T09:32:24;92453.16;;;18.47;31.72
9690;BME280;4884;42.614;23.340;2024-02-23T09:34:49;92427.09;;;19.26;29.86
9690;BME280;4884;42.614;23.340;2024-02-23T09:37:14;92354.91;;;19.38;29.70
9690;BME280;4884;42.614;23.340;2024-02-23T09:39:40;92439.97;;;18.89;30.99
9690;BME280;4884;42.614;23.340;2024-02-23T09:42:09;92418.78;;;19.53;30.61
9690;BME280;4884;42.614;23.340;2024-02-23T09:44:36;92429.78;;;21.02;27.29
9690;BME280;4884;42.614;23.340;2024-02-23T09:47:02;92406.38;;;20.15;28.19
9690;BME280;4884;42.614;23.340;2024-02-23T09:49:39;92413.88;;;20.24;28.78
9690;BME280;4884;42.614;23.340;2024-02-23T09:52:08;92435.50;;;21.37;26.11
9690;BME280;4884;42.614;23.340;2024-02-23T09:54:39;92415.56;;;21.63;26.19
9690;BME280;4884;42.614;23.340;2024-02-23T09:57:07;92403.72;;;22.31;24.76
9690;BME280;4884;42.614;23.340;2024-02-23T09:59:34;92425.78;;;16.58;31.66
9690;BME280;4884;42.614;23.340;2024-02-23T10:01:59;92365.75;;;20.12;27.37
9690;BME280;4884;42.614;23.340;2024-02-23T10:04:27;92310.19;;;20.44;26.64
9690;BME280;4884;42.614;23.340;2024-02-23T10:06:56;92304.13;;;17.63;29.60
9690;BME280;4884;42.614;23.340;2024-02-23T10:09:21;92379.91;;;20.36;28.29
9690;BME280;4884;42.614;23.340;2024-02-23T10:11:54;92389.34;;;19.72;28.24
9690;BME280;4884;42.614;23.340;2024-02-23T10:14:20;92373.25;;;20.25;27.00
9690;BME280;4884;42.614;23.340;2024-02-23T10:16:46;92391.94;;;21.19;25.78
9690;BME280;4884;42.614;23.340;2024-02-23T10:19:11;92303.34;;;18.54;28.37
9690;BME280;4884;42.614;23.340;2024-02-23T10:21:37;92394.91;;;17.88;29.35
9690;BME280;4884;42.614;23.340;2024-02-23T10:24:02;92412.91;;;17.90;30.23
9690;BME280;4884;42.614;23.340;2024-02-23T10:26:28;92408.06;;;16.99;31.80
9690;BME280;4884;42.614;23.340;2024-02-23T10:28:53;92380.97;;;16.74;33.24
9690;BME280;4884;42.614;23.340;2024-02-23T10:31:19;92393.69;;;16.72;32.40
9690;BME280;4884;42.614;23.340;2024-02-23T10:33:44;92385.75;;;16.10;33.69
9690;BME280;4884;42.614;23.340;2024-02-23T10:36:11;92283.69;;;16.14;32.04
9690;BME280;4884;42.614;23.340;2024-02-23T10:38:40;92274.91;;;17.82;29.80
9690;BME280;4884;42.614;23.340;2024-02-23T10:41:07;92279.41;;;17.71;30.01
9690;BME280;4884;42.614;23.340;2024-02-23T10:43:42;92264.28;;;16.18;32.32
9690;BME280;4884;42.614;23.340;2024-02-23T10:46:09;92401.94;;;15.13;35.54
9690;BME280;4884;42.614;23.340;2024-02-23T10:48:39;92381.72;;;15.10;36.17
9690;BME280;4884;42.614;23.340;2024-02-23T10:51:06;92275.75;;;13.44;36.28
9690;BME280;4884;42.614;23.340;2024-02-23T10:53:32;92377.81;;;14.63;37.78
9690;BME280;4884;42.614;23.340;2024-02-23T10:56:00;92268.47;;;14.06;37.11
9690;BME280;4884;42.614;23.340;2024-02-23T10:58:26;92348.56;;;14.02;39.55
9690;BME280;4884;42.614;23.340;2024-02-23T11:00:53;92350.41;;;13.56;38.04
9690;BME280;4884;42.614;23.340;2024-02-23T11:03:24;92370.06;;;13.95;39.06
9690;BME280;4884;42.614;23.340;2024-02-23T11:05:50;92365.22;;;13.52;39.02
9690;BME280;4884;42.614;23.340;2024-02-23T11:08:18;92354.88;;;13.14;41.37
9690;BME280;4884;42.614;23.340;2024-02-23T11:10:51;92241.88;;;12.42;38.94
9690;BME280;4884;42.614;23.340;2024-02-23T11:13:30;92209.97;;;11.56;40.91
9690;BME280;4884;42.614;23.340;2024-02-23T11:16:04;92314.06;;;12.45;40.35
9690;BME280;4884;42.614;23.340;2024-02-23T11:18:30;92360.94;;;12.83;40.55
9690;BME280;4884;42.614;23.340;2024-02-23T11:21:02;92342.03;;;13.24;41.11
9690;BME280;4884;42.614;23.340;2024-02-23T11:26:12;92353.53;;;13.42;39.54
9690;BME280;4884;42.614;23.340;2024-02-23T11:28:48;92240.22;;;12.72;39.16
9690;BME280;4884;42.614;23.340;2024-02-23T11:31:23;92227.47;;;12.86;38.79
9690;BME280;4884;42.614;23.340;2024-02-23T11:33:55;92157.06;;;11.99;39.91
9690;BME280;4884;42.614;23.340;2024-02-23T11:36:27;92239.97;;;13.68;38.42
9690;BME280;4884;42.614;23.340;2024-02-23T11:38:54;92311.13;;;14.17;37.71
9690;BME280;4884;42.614;23.340;2024-02-23T11:41:22;92333.97;;;14.01;37.66
9690;BME280;4884;42.614;23.340;2024-02-23T11:43:49;92290.22;;;13.65;38.17
9690;BME280;4884;42.614;23.340;2024-02-23T11:46:16;92318.03;;;13.34;38.14
9690;BME280;4884;42.614;23.340;2024-02-23T11:48:42;92204.47;;;13.60;38.49
9690;BME280;4884;42.614;23.340;2024-02-23T11:51:09;92324.47;;;16.80;33.14
9690;BME280;4884;42.614;23.340;2024-02-23T11:53:36;92199.84;;;16.93;32.71
9690;BME280;4884;42.614;23.340;2024-02-23T11:56:06;92206.66;;;17.82;30.30
9690;BME280;4884;42.614;23.340;2024-02-23T11:58:32;92331.13;;;18.20;30.34
9690;BME280;4884;42.614;23.340;2024-02-23T12:00:59;92326.63;;;18.55;29.14
9690;BME280;4884;42.614;23.340;2024-02-23T12:03:30;92293.44;;;20.21;27.57
9690;BME280;4884;42.614;23.340;2024-02-23T12:06:00;92199.84;;;19.10;26.79
9690;BME280;4884;42.614;23.340;2024-02-23T12:08:26;92311.38;;;19.19;28.71
9690;BME280;4884;42.614;23.340;2024-02-23T12:10:54;92295.84;;;20.82;25.48
9690;BME280;4884;42.614;23.340;2024-02-23T12:13:19;92249.31;;;21.83;23.19
9690;BME280;4884;42.614;23.340;2024-02-23T12:15:45;92191.63;;;19.01;26.38
9690;BME280;4884;42.614;23.340;2024-02-23T12:18:11;92216.91;;;16.48;29.42
9690;BME280;4884;42.614;23.340;2024-02-23T12:20:36;92288.38;;;17.52;29.00
9690;BME280;4884;42.614;23.340;2024-02-23T12:23:02;92184.53;;;17.30;28.87
9690;BME280;4884;42.614;23.340;2024-02-23T12:25:27;92251.50;;;16.82;29.85
9690;BME280;4884;42.614;23.340;2024-02-23T12:27:56;92226.03;;;18.41;28.84
9690;BME280;4884;42.614;23.340;2024-02-23T12:30:22;92275.50;;;19.54;25.87
9690;BME280;4884;42.614;23.340;2024-02-23T12:32:48;92123.16;;;18.53;27.37
9690;BME280;4884;42.614;23.340;2024-02-23T12:35:14;92180.25;;;20.47;24.80
9690;BME280;4884;42.614;23.340;2024-02-23T12:37:39;92186.75;;;20.36;25.41
9690;BME280;4884;42.614;23.340;2024-02-23T12:40:06;92223.03;;;18.56;25.80
9690;BME280;4884;42.614;23.340;2024-02-23T12:42:32;92179.72;;;20.26;23.68
9690;BME280;4884;42.614;23.340;2024-02-23T12:44:57;92253.56;;;20.22;26.10
9690;BME280;4884;42.614;23.340;2024-02-23T12:47:23;92249.78;;;20.19;26.53
9690;BME280;4884;42.614;23.340;2024-02-23T12:49:48;92153.75;;;21.15;24.18
9690;BME280;4884;42.614;23.340;2024-02-23T12:52:14;92239.97;;;22.44;23.44
9690;BME280;4884;42.614;23.340;2024-02-23T12:54:39;92133.88;;;22.03;22.85
9690;BME280;4884;42.614;23.340;2024-02-23T12:57:04;92150.00;;;17.91;26.35
9690;BME280;4884;42.614;23.340;2024-02-23T12:59:30;92272.28;;;20.31;24.89
9690;BME280;4884;42.614;23.340;2024-02-23T13:01:55;92201.00;;;21.32;23.85
9690;BME280;4884;42.614;23.340;2024-02-23T13:04:21;92241.19;;;20.53;25.46
9690;BME280;4884;42.614;23.340;2024-02-23T13:06:46;92164.34;;;19.39;25.17
9690;BME280;4884;42.614;23.340;2024-02-23T13:09:12;92281.31;;;20.30;25.68
9690;BME280;4884;42.614;23.340;2024-02-23T13:11:40;92265.88;;;19.84;25.59
9690;BME280;4884;42.614;23.340;2024-02-23T13:14:05;92218.41;;;18.75;28.06